Time;durP1;ratioP1;P1;durP2;ratioP2;P2;SDS_P1;SDS_P2;PMS_P1;PMS_P2;Temp;Humidity;BMP_temperature;BMP_pressure;BME280_temperature;BME280_humidity;BME280_pressure;Samples;Min_cycle;Max_cycle;Signal;HPM_P1;HPM_P2
2022/10/27 03:38:07;;;;;;;;;;;;;;;11.16;100.00;100274.78;5002399;28;19971;-91
2022/10/27 03:40:33;;;;;;;;;;;;;;;11.18;100.00;100280.03;4983660;28;19922;-90
2022/10/27 03:42:58;;;;;;;;;;;;;;;11.19;100.00;100279.13;4984799;28;19929;-86
2022/10/27 03:45:25;;;;;;;;;;;;;;;11.19;100.00;100287.06;4984436;28;19929;-88
2022/10/27 03:47:57;;;;;;;;;;;;;;;11.19;100.00;100285.28;4984741;28;20307;-89
2022/10/27 03:50:23;;;;;;;;;;;;;;;11.21;100.00;100293.16;4982983;28;20825;-89
2022/10/27 03:52:48;;;;;;;;;;;;;;;11.26;100.00;100291.22;5002718;28;19921;-90
2022/10/27 03:55:13;;;;;;;;;;;;;;;11.25;100.00;100286.84;5002623;28;19918;-92
2022/10/27 03:57:38;;;;;;;;;;;;;;;11.26;100.00;100291.22;4969704;28;20000;-92
2022/10/27 04:00:04;;;;;;;;;;;;;;;11.30;100.00;100276.91;5003000;28;20008;-93
2022/10/27 04:02:29;;;;;;;;;;;;;;;11.31;100.00;100283.94;5002745;28;19922;-94
2022/10/27 04:04:55;;;;;;;;;;;;;;;11.29;100.00;100274.31;5005018;28;19928;-96
2022/10/27 04:07:20;;;;;;;;;;;;;;;11.30;100.00;100276.91;5002536;28;20359;-92
2022/10/27 04:09:45;;;;;;;;;;;;;;;11.29;100.00;100275.16;4985004;28;20155;-88
2022/10/27 04:12:10;;;;;;;;;;;;;;;11.32;100.00;100283.03;5002155;28;19917;-89
2022/10/27 04:14:36;;;;;;;;;;;;;;;11.33;100.00;100271.50;5002563;28;19965;-92
2022/10/27 04:17:01;;;;;;;;;;;;;;;11.34;100.00;100272.34;4984506;28;19926;-84
2022/10/27 04:19:26;;;;;;;;;;;;;;;11.37;100.00;100281.03;5003094;28;19971;-95
2022/10/27 04:21:51;;;;;;;;;;;;;;;11.36;100.00;100278.44;5001384;28;19921;-90
2022/10/27 04:24:17;;;;;;;;;;;;;;;11.31;100.00;100281.28;5002269;28;19917;-94
2022/10/27 04:26:42;;;;;;;;;;;;;;;11.30;100.00;100287.53;5002913;28;19917;-91
2022/10/27 04:29:07;;;;;;;;;;;;;;;11.32;100.00;100283.03;4984539;28;19918;-94
2022/10/27 04:31:32;;;;;;;;;;;;;;;11.22;100.00;100300.22;4985504;28;19917;-95
2022/10/27 04:33:58;;;;;;;;;;;;;;;9.52;100.00;100284.69;4986506;28;19929;-91
2022/10/27 04:36:23;;;;;;;;;;;;;;;8.68;100.00;100291.53;4985022;28;19948;-94
2022/10/27 04:38:49;;;;;;;;;;;;;;;8.45;100.00;100297.41;5007383;28;19928;-93
2022/10/27 04:41:14;;;;;;;;;;;;;;;8.21;100.00;100295.38;5007054;28;19922;-94
2022/10/27 04:43:40;;;;;;;;;;;;;;;8.01;100.00;100294.09;5004985;28;20265;-95
2022/10/27 04:46:05;;;;;;;;;;;;;;;7.89;100.00;100297.00;5006619;28;19921;-93
2022/10/27 08:15:42;;;;;;;;;;;;;;;6.69;100.00;100356.59;5009629;28;19948;-88
2022/10/27 08:18:08;;;;;;;;;;;;;;;6.70;100.00;100358.34;5014082;28;20388;-88
2022/10/27 08:20:36;;;;;;;;;;;;;;;6.68;100.00;100362.72;5005340;28;20300;-89
2022/10/27 08:23:02;;;;;;;;;;;;;;;6.73;100.00;100353.00;5003412;28;19926;-84
2022/10/27 08:25:28;;;;;;;;;;;;;;;6.81;100.00;100357.25;5003121;28;19917;-90
2022/10/27 08:27:54;;;;;;;;;;;;;;;6.78;100.00;100354.69;4985660;28;19917;-87
2022/10/27 08:30:19;;;;;;;;;;;;;;;6.76;100.00;100359.97;4986497;28;19929;-85
2022/10/27 08:32:46;;;;;;;;;;;;;;;6.77;100.00;100363.50;5003610;28;19917;-88
2022/10/27 08:35:11;;;;;;;;;;;;;;;6.80;100.00;100363.44;5003046;28;19926;-84
2022/10/27 08:37:36;;;;;;;;;;;;;;;6.81;100.00;100367.78;5002859;28;19918;-84
2022/10/27 08:40:02;;;;;;;;;;;;;;;6.79;100.00;100359.06;5002601;28;19928;-86
2022/10/27 08:42:30;;;;;;;;;;;;;;;6.79;100.00;100361.69;4985620;28;19925;-88
2022/10/27 08:45:00;;;;;;;;;;;;;;;6.81;100.00;100359.88;5003380;28;20001;-85
2022/10/27 08:47:25;;;;;;;;;;;;;;;6.83;100.00;100358.09;5003073;28;19913;-86
2022/10/27 08:50:01;;;;;;;;;;;;;;;6.81;100.00;100359.88;5002140;28;19941;-86
2022/10/27 08:52:29;;;;;;;;;;;;;;;6.83;100.00;100371.25;5001582;28;19914;-87
2022/10/27 08:54:59;;;;;;;;;;;;;;;6.85;100.00;100361.59;4993581;28;19994;-85
2022/10/27 08:57:26;;;;;;;;;;;;;;;6.83;100.00;100368.63;4985207;28;19924;-86
2022/10/27 08:59:54;;;;;;;;;;;;;;;6.79;100.00;100366.97;5003427;28;19926;-87
2022/10/27 09:02:33;;;;;;;;;;;;;;;6.88;100.00;100366.78;5002906;28;19918;-87
2022/10/27 09:05:17;;;;;;;;;;;;;;;6.87;100.00;100365.91;5000620;28;19994;-90
2022/10/27 09:08:06;;;;;;;;;;;;;;;6.88;100.00;100369.44;4986670;28;19974;-89
2022/10/27 09:10:41;;;;;;;;;;;;;;;6.90;100.00;100360.59;4991296;28;19926;-88
2022/10/27 09:13:06;;;;;;;;;;;;;;;6.91;100.00;100366.75;5001271;28;20013;-85
2022/10/27 09:15:40;;;;;;;;;;;;;;;7.09;100.00;100363.75;5011003;28;20023;-88
2022/10/27 09:18:18;;;;;;;;;;;;;;;7.00;100.00;100361.28;5012510;28;19936;-89
2022/10/27 09:20:52;;;;;;;;;;;;;;;6.98;100.00;100349.91;5004955;28;19976;-87
2022/10/27 09:23:18;;;;;;;;;;;;;;;6.97;100.00;100349.94;5018497;28;19956;-89
2022/10/27 09:25:50;;;;;;;;;;;;;;;6.99;100.00;100343.75;5006247;28;20376;-85
2022/10/27 09:28:34;;;;;;;;;;;;;;;7.03;100.00;100334.88;5017462;28;19925;-90
2022/10/27 09:30:59;;;;;;;;;;;;;;;7.01;100.00;100339.31;5022417;28;19917;-89
2022/10/27 09:33:30;;;;;;;;;;;;;;;7.03;100.00;100339.28;5022360;28;20425;-88
2022/10/27 09:35:55;;;;;;;;;;;;;;;7.02;100.00;100343.69;5021813;28;19918;-85
2022/10/27 09:38:22;;;;;;;;;;;;;;;7.04;100.00;100346.31;5005748;28;20326;-87
2022/10/27 09:40:48;;;;;;;;;;;;;;;7.03;100.00;100345.41;5005656;28;19967;-90
2022/10/27 09:43:13;;;;;;;;;;;;;;;7.04;100.00;100330.50;5008351;28;19922;-86
2022/10/27 09:45:41;;;;;;;;;;;;;;;6.96;100.00;100337.69;4999951;28;19925;-87
2022/10/27 09:48:12;;;;;;;;;;;;;;;7.00;100.00;100337.56;5023126;28;19917;-86
2022/10/27 09:50:39;;;;;;;;;;;;;;;7.04;100.00;100331.34;5023355;28;19928;-86
2022/10/27 09:53:25;;;;;;;;;;;;;;;6.98;100.00;100330.59;5018004;28;19921;-87
2022/10/27 09:55:51;;;;;;;;;;;;;;;7.01;100.00;100317.38;5022691;28;19924;-86
2022/10/27 09:58:17;;;;;;;;;;;;;;;7.03;100.00;100311.16;5015832;28;19921;-89
2022/10/27 10:00:43;;;;;;;;;;;;;;;7.01;100.00;100314.75;5003923;28;20384;-84
2022/10/27 10:03:19;;;;;;;;;;;;;;;6.99;100.00;100317.41;5004072;28;19921;-85
2022/10/27 10:05:44;;;;;;;;;;;;;;;7.00;100.00;100316.47;4990345;28;19957;-84
2022/10/27 10:08:21;;;;;;;;;;;;;;;7.03;100.00;100305.88;5002019;28;20295;-85
2022/10/27 10:10:52;;;;;;;;;;;;;;;6.99;100.00;100306.88;5019585;28;20438;-85
2022/10/27 10:13:19;;;;;;;;;;;;;;;6.97;100.00;100307.78;4999817;28;19921;-85
2022/10/27 10:15:45;;;;;;;;;;;;;;;6.95;100.00;100309.59;5010569;28;20001;-84
2022/10/27 10:18:22;;;;;;;;;;;;;;;6.98;100.00;100305.13;5010005;28;20389;-85
2022/10/27 10:20:54;;;;;;;;;;;;;;;6.97;100.00;100302.50;4999415;28;20000;-86
2022/10/27 10:23:27;;;;;;;;;;;;;;;6.95;100.00;100299.91;4995086;28;19925;-83
2022/10/27 10:25:54;;;;;;;;;;;;;;;7.01;100.00;100289.25;4995314;28;19970;-86
2022/10/27 10:28:25;;;;;;;;;;;;;;;7.03;100.00;100297.97;4995563;28;19924;-84
2022/10/27 10:30:53;;;;;;;;;;;;;;;6.96;100.00;100296.38;5008569;28;19922;-84
2022/10/27 10:33:18;;;;;;;;;;;;;;;7.03;100.00;100291.84;4995948;28;19929;-84
2022/10/27 10:35:47;;;;;;;;;;;;;;;6.98;100.00;100291.94;5009344;28;20324;-85
2022/10/27 10:38:22;;;;;;;;;;;;;;;6.99;100.00;100280.50;5009858;28;19924;-84
2022/10/27 10:41:05;;;;;;;;;;;;;;;7.01;100.00;100277.84;5008075;28;19922;-86
2022/10/27 10:43:31;;;;;;;;;;;;;;;7.02;100.00;100280.44;4991772;28;19922;-84
2022/10/27 10:45:57;;;;;;;;;;;;;;;7.03;100.00;100268.13;5008662;28;19986;-84
2022/10/27 10:48:22;;;;;;;;;;;;;;;7.04;100.00;100262.84;4998904;28;19928;-85
2022/10/27 10:50:49;;;;;;;;;;;;;;;7.00;100.00;100265.56;4998801;28;19918;-84
2022/10/27 10:53:28;;;;;;;;;;;;;;;7.05;100.00;100263.69;4995599;28;20250;-85
2022/10/27 10:55:54;;;;;;;;;;;;;;;7.02;100.00;100256.75;5005403;28;19925;-84
2022/10/27 10:58:21;;;;;;;;;;;;;;;7.02;100.00;100259.38;4980966;28;20569;-84
2022/10/27 11:00:54;;;;;;;;;;;;;;;7.00;100.00;100255.03;4984048;28;20055;-84
2022/10/27 11:03:21;;;;;;;;;;;;;;;7.05;100.00;100254.03;5001173;28;20130;-84
2022/10/27 11:05:55;;;;;;;;;;;;;;;7.02;100.00;100243.56;5009223;28;19936;-83
2022/10/27 11:08:22;;;;;;;;;;;;;;;6.99;100.00;100237.47;5018235;28;19943;-83
2022/10/27 11:10:48;;;;;;;;;;;;;;;7.01;100.00;100247.09;5017990;28;20280;-84
2022/10/27 11:13:27;;;;;;;;;;;;;;;7.02;100.00;100243.56;5002317;28;20004;-88
2022/10/27 11:16:00;;;;;;;;;;;;;;;7.04;100.00;100241.75;4990499;28;19933;-83
2022/10/27 11:18:28;;;;;;;;;;;;;;;7.05;100.00;100247.88;5012181;28;19918;-84
2022/10/27 11:21:17;;;;;;;;;;;;;;;7.03;100.00;100255.81;5012394;28;20292;-84
2022/10/27 11:23:47;;;;;;;;;;;;;;;7.05;100.00;100251.41;4988426;28;19921;-84
2022/10/27 11:26:18;;;;;;;;;;;;;;;7.06;100.00;100241.72;5010647;28;19921;-83
2022/10/27 11:28:52;;;;;;;;;;;;;;;7.02;100.00;100245.31;5010567;28;19922;-84
2022/10/27 11:31:25;;;;;;;;;;;;;;;7.06;100.00;100244.34;5012153;28;19940;-83
2022/10/27 11:33:51;;;;;;;;;;;;;;;7.07;100.00;100236.41;4994665;28;19953;-87
2022/10/27 11:36:39;;;;;;;;;;;;;;;7.05;100.00;100232.97;4994659;28;19961;-84
2022/10/27 11:39:07;;;;;;;;;;;;;;;7.13;100.00;100224.88;4982554;28;19957;-86
2022/10/27 11:41:39;;;;;;;;;;;;;;;7.12;100.00;100222.28;5010106;28;19940;-84
2022/10/27 11:44:15;;;;;;;;;;;;;;;7.08;100.00;100227.63;5010660;28;19921;-86
2022/10/27 11:46:50;;;;;;;;;;;;;;;7.05;100.00;100221.53;4993699;28;19917;-86
2022/10/27 11:49:22;;;;;;;;;;;;;;;7.05;100.00;100216.25;4994580;28;19964;-90
2022/10/27 11:52:05;;;;;;;;;;;;;;;7.12;100.00;100211.75;5011715;28;19952;-87
2022/10/27 11:54:31;;;;;;;;;;;;;;;7.07;100.00;100214.47;4994259;28;19945;-88
2022/10/27 11:57:15;;;;;;;;;;;;;;;7.03;100.00;100203.13;4993224;28;20364;-89
2022/10/27 12:00:05;;;;;;;;;;;;;;;7.03;100.00;100208.38;4994283;28;20330;-86
2022/10/27 12:02:30;;;;;;;;;;;;;;;7.06;100.00;100202.19;5012038;28;20399;-89
2022/10/27 12:05:08;;;;;;;;;;;;;;;7.04;100.00;100202.22;5012025;28;19928;-85
2022/10/27 12:07:52;;;;;;;;;;;;;;;7.05;100.00;100200.44;5012126;28;20360;-86
2022/10/27 12:10:34;;;;;;;;;;;;;;;7.01;100.00;100204.94;5011969;28;19918;-86
2022/10/27 12:13:06;;;;;;;;;;;;;;;7.07;100.00;100204.81;5010738;28;19918;-88
2022/10/27 12:15:38;;;;;;;;;;;;;;;7.05;100.00;100203.97;5011475;28;19926;-86
2022/10/27 12:18:09;;;;;;;;;;;;;;;7.04;100.00;100196.97;4994244;28;20320;-87
2022/10/27 12:20:46;;;;;;;;;;;;;;;7.08;100.00;100193.38;5009830;28;19917;-86
2022/10/27 12:23:20;;;;;;;;;;;;;;;7.04;100.00;100189.06;4994066;28;20284;-85
2022/10/27 12:25:53;;;;;;;;;;;;;;;7.02;100.00;100177.69;5009971;28;19995;-86
2022/10/27 12:28:22;;;;;;;;;;;;;;;7.07;100.00;100183.72;4992843;28;19921;-86
2022/10/27 12:30:48;;;;;;;;;;;;;;;7.14;100.00;100178.31;5011700;28;19921;-88
2022/10/27 12:33:33;;;;;;;;;;;;;;;7.08;100.00;100180.19;4994257;28;19940;-91
2022/10/27 12:35:58;;;;;;;;;;;;;;;7.05;100.00;100179.38;4993961;28;19968;-90
2022/10/27 12:38:56;;;;;;;;;;;;;;;7.04;100.00;100181.16;5011823;28;20016;-87
2022/10/27 12:41:24;;;;;;;;;;;;;;;7.06;100.00;100176.72;4972085;28;19929;-89
2022/10/27 12:43:54;;;;;;;;;;;;;;;7.03;100.00;100176.78;4992795;28;20266;-88
2022/10/27 12:46:35;;;;;;;;;;;;;;;7.09;100.00;100174.00;5010150;28;19990;-91
2022/10/27 12:49:19;;;;;;;;;;;;;;;7.05;100.00;100175.00;4993955;28;19932;-91
2022/10/27 12:52:03;;;;;;;;;;;;;;;7.10;100.00;100185.44;4993848;28;19917;-90
2022/10/27 12:54:48;;;;;;;;;;;;;;;7.07;100.00;100174.97;4993856;28;19944;-90
2022/10/27 12:57:32;;;;;;;;;;;;;;;7.04;100.00;100173.25;4992607;28;19918;-89
2022/10/27 13:00:06;;;;;;;;;;;;;;;7.03;100.00;100171.50;4997415;28;19918;-89
2022/10/27 13:02:36;;;;;;;;;;;;;;;7.04;100.00;100172.38;5014701;28;20209;-89
2022/10/27 13:05:13;;;;;;;;;;;;;;;7.05;100.00;100167.09;5014914;28;20039;-90
2022/10/27 13:07:39;;;;;;;;;;;;;;;7.04;100.00;100169.75;5015016;28;19929;-90
2022/10/27 13:10:07;;;;;;;;;;;;;;;7.06;100.00;100166.16;5014972;28;19918;-89
2022/10/27 13:12:32;;;;;;;;;;;;;;;7.07;100.00;100167.06;5013460;28;20090;-90
2022/10/27 13:15:20;;;;;;;;;;;;;;;7.14;100.00;100168.63;4997153;28;20004;-90
2022/10/27 13:17:48;;;;;;;;;;;;;;;7.05;100.00;100164.44;5013721;28;20012;-90
2022/10/27 13:20:17;;;;;;;;;;;;;;;7.06;100.00;100160.91;4997157;28;19917;-89
2022/10/27 13:22:45;;;;;;;;;;;;;;;7.07;100.00;100170.53;5014570;28;19917;-91
2022/10/27 13:25:10;;;;;;;;;;;;;;;7.05;100.00;100164.44;5013978;28;19943;-90
2022/10/27 13:27:39;;;;;;;;;;;;;;;7.06;100.00;100160.91;5013402;28;19914;-91
2022/10/27 13:30:12;;;;;;;;;;;;;;;7.06;100.00;100155.63;5014443;28;19921;-90
2022/10/27 13:32:39;;;;;;;;;;;;;;;7.13;100.00;100153.72;5014707;28;19991;-90
2022/10/27 13:35:04;;;;;;;;;;;;;;;7.06;100.00;100150.34;5014391;28;20056;-90
2022/10/27 13:37:40;;;;;;;;;;;;;;;7.11;100.00;100141.50;4996875;28;20856;-89
2022/10/27 13:40:21;;;;;;;;;;;;;;;7.13;100.00;100134.41;5014039;28;19917;-89
2022/10/27 13:42:50;;;;;;;;;;;;;;;7.15;100.00;100127.31;4994976;28;19987;-90
2022/10/27 13:45:36;;;;;;;;;;;;;;;7.11;100.00;100126.53;5014048;28;19924;-90
2022/10/27 13:48:07;;;;;;;;;;;;;;;7.11;100.00;100125.69;5013364;28;19928;-89
2022/10/27 13:50:49;;;;;;;;;;;;;;;7.04;100.00;100135.50;4996130;28;19928;-87
2022/10/27 13:53:14;;;;;;;;;;;;;;;7.13;100.00;100139.69;5013623;28;19913;-85
2022/10/27 13:55:40;;;;;;;;;;;;;;;7.14;100.00;100141.41;5013933;28;19917;-88
2022/10/27 13:58:22;;;;;;;;;;;;;;;7.13;100.00;100155.50;5012504;28;19996;-87
2022/10/27 14:00:57;;;;;;;;;;;;;;;7.18;100.00;100149.22;5013624;28;19918;-87
2022/10/27 14:03:31;;;;;;;;;;;;;;;7.14;100.00;100160.72;5013179;28;20357;-83
2022/10/27 14:05:56;;;;;;;;;;;;;;;7.09;100.00;100160.81;5013377;28;20338;-84
2022/10/27 14:08:23;;;;;;;;;;;;;;;7.12;100.00;100166.94;5013705;28;19952;-90
2022/10/27 14:10:49;;;;;;;;;;;;;;;7.12;100.00;100169.59;4995496;28;19964;-89
2022/10/27 14:13:25;;;;;;;;;;;;;;;7.08;100.00;100164.38;5012379;28;20352;-87
2022/10/27 14:15:55;;;;;;;;;;;;;;;7.08;100.00;100159.13;4995818;28;19928;-84
2022/10/27 14:18:31;;;;;;;;;;;;;;;7.06;100.00;100155.63;5013789;28;19917;-89
2022/10/27 14:20:59;;;;;;;;;;;;;;;7.09;100.00;100155.56;5013001;28;19918;-85
2022/10/27 14:23:27;;;;;;;;;;;;;;;7.12;100.00;100149.38;5012443;28;20471;-87
2022/10/27 14:25:52;;;;;;;;;;;;;;;7.14;100.00;100155.47;5013394;28;19917;-88
2022/10/27 14:28:19;;;;;;;;;;;;;;;7.20;100.00;100162.38;5012088;28;20357;-84
2022/10/27 14:30:45;;;;;;;;;;;;;;;7.18;100.00;100158.88;5013327;28;19924;-85
2022/10/27 14:33:14;;;;;;;;;;;;;;;7.19;100.00;100158.00;5011744;28;19917;-85
2022/10/27 14:35:40;;;;;;;;;;;;;;;7.18;100.00;100164.16;5013079;28;19961;-84
2022/10/27 14:38:13;;;;;;;;;;;;;;;7.18;100.00;100158.88;5013302;28;19976;-87
2022/10/27 14:40:38;;;;;;;;;;;;;;;7.15;100.00;100158.94;4995473;28;19924;-89
2022/10/27 14:43:15;;;;;;;;;;;;;;;7.15;100.00;100157.19;4993900;28;20367;-86
2022/10/27 14:45:42;;;;;;;;;;;;;;;7.16;100.00;100155.41;5013172;28;19980;-89
2022/10/27 14:48:13;;;;;;;;;;;;;;;7.15;100.00;100144.03;5012936;28;19913;-89
2022/10/27 14:50:40;;;;;;;;;;;;;;;7.20;100.00;100159.72;5012646;28;19999;-88
2022/10/27 14:53:19;;;;;;;;;;;;;;;7.18;100.00;100143.06;5012043;28;19918;-86
2022/10/27 14:55:45;;;;;;;;;;;;;;;7.20;100.00;100139.50;4995221;28;19925;-89
2022/10/27 14:58:23;;;;;;;;;;;;;;;7.16;100.00;100144.88;4993954;28;19913;-85
2022/10/27 15:00:49;;;;;;;;;;;;;;;7.18;100.00;100140.44;4995041;28;20017;-90
2022/10/27 15:03:14;;;;;;;;;;;;;;;7.21;100.00;100149.16;5012647;28;19925;-91
2022/10/27 15:05:45;;;;;;;;;;;;;;;7.19;100.00;100145.66;5012777;28;19921;-89
2022/10/27 15:08:20;;;;;;;;;;;;;;;7.16;100.00;100139.59;5012318;28;20395;-90
2022/10/27 15:10:48;;;;;;;;;;;;;;;7.16;100.00;100150.16;5012551;28;19917;-85
2022/10/27 15:13:16;;;;;;;;;;;;;;;7.09;100.00;100147.66;5011191;28;19954;-84
2022/10/27 15:15:42;;;;;;;;;;;;;;;7.15;100.00;100151.03;5012509;28;19927;-85
2022/10/27 15:18:19;;;;;;;;;;;;;;;7.13;100.00;100153.72;5011812;28;19928;-89
2022/10/27 15:20:45;;;;;;;;;;;;;;;7.15;100.00;100153.69;5012097;28;19918;-89
2022/10/27 15:23:12;;;;;;;;;;;;;;;7.07;100.00;100152.09;5011696;28;19917;-89
2022/10/27 15:25:39;;;;;;;;;;;;;;;7.11;100.00;100159.94;5011417;28;19924;-88
2022/10/27 15:28:05;;;;;;;;;;;;;;;7.18;100.00;100156.25;5011008;28;20353;-88
2022/10/27 15:30:33;;;;;;;;;;;;;;;7.16;100.00;100163.31;4995477;28;19953;-86
2022/10/27 15:32:58;;;;;;;;;;;;;;;7.13;100.00;100161.63;5011442;28;19937;-85
2022/10/27 15:35:24;;;;;;;;;;;;;;;7.09;100.00;100160.81;5012520;28;20476;-87
2022/10/27 15:37:49;;;;;;;;;;;;;;;7.18;100.00;100164.16;4994726;28;19928;-90
2022/10/27 15:40:19;;;;;;;;;;;;;;;7.12;100.00;100167.81;4994983;28;19936;-89
2022/10/27 15:42:44;;;;;;;;;;;;;;;7.07;100.00;100162.63;5011144;28;20368;-88
2022/10/27 15:45:28;;;;;;;;;;;;;;;7.15;100.00;100167.75;5012196;28;19921;-88
2022/10/27 15:47:57;;;;;;;;;;;;;;;7.12;100.00;100172.22;5012050;28;19917;-87
2022/10/27 15:50:40;;;;;;;;;;;;;;;7.17;100.00;100167.72;4994056;28;20394;-90
2022/10/27 15:53:18;;;;;;;;;;;;;;;7.18;100.00;100164.16;5011066;28;19921;-85
2022/10/27 15:55:55;;;;;;;;;;;;;;;7.17;100.00;100167.72;5012126;28;19948;-90
2022/10/27 15:58:24;;;;;;;;;;;;;;;7.14;100.00;100166.00;5009531;28;19964;-89
2022/10/27 16:00:59;;;;;;;;;;;;;;;7.12;100.00;100164.31;5011573;28;20315;-86
2022/10/27 16:03:34;;;;;;;;;;;;;;;7.13;100.00;100166.88;4992081;28;19921;-88
2022/10/27 16:06:19;;;;;;;;;;;;;;;7.17;100.00;100172.97;4994431;28;20320;-90
2022/10/27 16:08:45;;;;;;;;;;;;;;;7.17;100.00;100168.56;5011400;28;19918;-83
2022/10/27 16:11:11;;;;;;;;;;;;;;;7.11;100.00;100162.56;4992506;28;20296;-89
2022/10/27 16:13:40;;;;;;;;;;;;;;;7.16;100.00;100161.53;4993105;28;19921;-88
2022/10/27 16:16:06;;;;;;;;;;;;;;;7.17;100.00;100171.19;4994792;28;19936;-89
2022/10/27 16:18:32;;;;;;;;;;;;;;;7.12;100.00;100170.44;5011540;28;20380;-87
2022/10/27 16:20:57;;;;;;;;;;;;;;;7.15;100.00;100175.66;4994321;28;19944;-86
2022/10/27 16:23:22;;;;;;;;;;;;;;;7.19;100.00;100174.66;4994715;28;19917;-91
2022/10/27 16:25:48;;;;;;;;;;;;;;;7.17;100.00;100178.25;5012450;28;19917;-89
2022/10/27 16:28:18;;;;;;;;;;;;;;;7.17;100.00;100183.53;5010935;28;20004;-87
2022/10/27 16:30:43;;;;;;;;;;;;;;;7.19;100.00;100181.72;5011289;28;19940;-92
2022/10/27 16:33:16;;;;;;;;;;;;;;;7.17;100.00;100186.16;5012215;28;20365;-89
2022/10/27 16:35:41;;;;;;;;;;;;;;;7.15;100.00;100186.19;4952932;28;19962;-88
2022/10/27 16:38:08;;;;;;;;;;;;;;;7.15;100.00;100190.56;4952365;29;19958;-90
2022/10/27 16:40:33;;;;;;;;;;;;;;;7.15;100.00;100191.47;4938160;28;19927;-90
2022/10/27 16:43:01;;;;;;;;;;;;;;;7.12;100.00;100182.75;4954135;29;19942;-88
2022/10/27 16:45:27;;;;;;;;;;;;;;;7.12;100.00;100182.75;4954416;28;19926;-87
2022/10/27 16:47:52;;;;;;;;;;;;;;;7.16;100.00;100181.78;4936977;29;19922;-87
2022/10/27 16:50:18;;;;;;;;;;;;;;;7.15;100.00;100185.31;4954645;29;19923;-90
2022/10/27 16:52:44;;;;;;;;;;;;;;;7.14;100.00;100186.22;4952854;29;19923;-88
2022/10/27 16:55:12;;;;;;;;;;;;;;;7.12;100.00;100177.50;4956248;28;20022;-88
2022/10/27 16:57:38;;;;;;;;;;;;;;;7.15;100.00;100178.28;4937060;28;20362;-87
2022/10/27 17:00:04;;;;;;;;;;;;;;;7.15;100.00;100178.28;4963470;28;19992;-91
2022/10/27 17:02:30;;;;;;;;;;;;;;;7.18;100.00;100174.69;5014949;28;19918;-89
2022/10/27 17:04:55;;;;;;;;;;;;;;;7.15;100.00;100167.75;5014801;28;19921;-88
2022/10/27 17:07:20;;;;;;;;;;;;;;;7.16;100.00;100166.81;4996970;28;19929;-90
2022/10/27 17:09:45;;;;;;;;;;;;;;;7.16;100.00;100163.31;4996393;28;19933;-88
2022/10/27 17:12:11;;;;;;;;;;;;;;;7.16;100.00;100160.69;4994911;28;20001;-89
2022/10/27 17:14:36;;;;;;;;;;;;;;;7.13;100.00;100166.88;5015024;28;19921;-86
2022/10/27 17:17:01;;;;;;;;;;;;;;;7.12;100.00;100174.84;5015373;28;19925;-89
2022/10/27 17:19:26;;;;;;;;;;;;;;;7.18;100.00;100179.97;4996383;28;20426;-90
2022/10/27 17:21:52;;;;;;;;;;;;;;;7.07;100.00;100182.88;5014245;28;19928;-88
2022/10/27 17:24:17;;;;;;;;;;;;;;;7.08;100.00;100180.19;4996664;28;19925;-90
2022/10/27 17:26:45;;;;;;;;;;;;;;;7.11;100.00;100187.16;4995494;28;20020;-88
2022/10/27 17:29:10;;;;;;;;;;;;;;;7.12;100.00;100180.13;5010703;28;19921;-90
2022/10/27 17:31:35;;;;;;;;;;;;;;;7.13;100.00;100179.22;4996208;28;19932;-90
2022/10/27 17:34:01;;;;;;;;;;;;;;;7.05;100.00;100182.91;5013910;28;19929;-89
2022/10/27 17:36:27;;;;;;;;;;;;;;;7.05;100.00;100182.00;5014397;28;19955;-89
2022/10/27 17:38:52;;;;;;;;;;;;;;;7.10;100.00;100188.06;5013748;28;20192;-85
2022/10/27 17:41:17;;;;;;;;;;;;;;;7.09;100.00;100195.09;5013822;28;20004;-84
2022/10/27 17:43:43;;;;;;;;;;;;;;;7.09;100.00;100200.34;5012191;28;19929;-91
2022/10/27 17:46:10;;;;;;;;;;;;;;;7.02;100.00;100198.78;5014161;28;20323;-89
2022/10/27 17:48:37;;;;;;;;;;;;;;;7.05;100.00;100198.72;4994702;28;20277;-91
2022/10/27 17:51:06;;;;;;;;;;;;;;;7.06;100.00;100205.69;5012343;28;19929;-89
2022/10/27 17:53:32;;;;;;;;;;;;;;;7.05;100.00;100213.63;4993082;28;19949;-88
2022/10/27 17:55:59;;;;;;;;;;;;;;;7.04;100.00;100212.78;4994127;28;19929;-86
2022/10/27 17:58:24;;;;;;;;;;;;;;;7.07;100.00;100212.72;5012280;28;19926;-90
2022/10/27 18:00:49;;;;;;;;;;;;;;;7.08;100.00;100211.81;5011880;28;20666;-87
2022/10/27 18:03:14;;;;;;;;;;;;;;;7.12;100.00;100207.34;5014311;28;20012;-87
2022/10/27 18:05:40;;;;;;;;;;;;;;;7.15;100.00;100207.28;5012076;28;20044;-84
2022/10/27 18:08:05;;;;;;;;;;;;;;;7.17;100.00;100210.72;5011860;28;19933;-87
2022/10/27 18:10:30;;;;;;;;;;;;;;;7.13;100.00;100203.78;4995689;28;20357;-88
2022/10/27 18:12:56;;;;;;;;;;;;;;;7.10;100.00;100209.16;5010832;28;19922;-89
2022/10/27 18:15:22;;;;;;;;;;;;;;;7.15;100.00;100198.47;4995553;28;19971;-88
2022/10/27 18:17:48;;;;;;;;;;;;;;;7.17;100.00;100196.69;4994292;28;19947;-89
2022/10/27 18:20:16;;;;;;;;;;;;;;;7.15;100.00;100207.28;4995414;28;20388;-85
2022/10/27 18:22:41;;;;;;;;;;;;;;;7.13;100.00;100192.38;4995911;28;19926;-84
2022/10/27 18:25:07;;;;;;;;;;;;;;;7.16;100.00;100201.09;4995949;28;20404;-91
2022/10/27 18:27:33;;;;;;;;;;;;;;;7.09;100.00;100210.03;4994216;28;19972;-88
2022/10/27 18:29:58;;;;;;;;;;;;;;;7.07;100.00;100210.06;4996255;28;19960;-88
2022/10/27 18:32:23;;;;;;;;;;;;;;;7.14;100.00;100210.78;5012647;28;20432;-87
2022/10/27 18:34:49;;;;;;;;;;;;;;;7.15;100.00;100216.94;4993467;28;21033;-83
2022/10/27 18:37:14;;;;;;;;;;;;;;;7.11;100.00;100204.75;4994741;28;19921;-88
2022/10/27 18:39:39;;;;;;;;;;;;;;;7.11;100.00;100212.66;4994783;28;20300;-91
2022/10/27 18:42:05;;;;;;;;;;;;;;;7.11;100.00;100216.13;4994304;28;19921;-89
2022/10/27 18:44:30;;;;;;;;;;;;;;;7.03;100.00;100213.66;5002921;28;19956;-88
2022/10/27 18:46:56;;;;;;;;;;;;;;;7.12;100.00;100214.38;4995191;28;19976;-90
2022/10/27 18:49:21;;;;;;;;;;;;;;;7.09;100.00;100213.53;5013039;28;19922;-87
2022/10/27 18:51:46;;;;;;;;;;;;;;;7.08;100.00;100217.09;4995073;28;19921;-89
2022/10/27 18:54:12;;;;;;;;;;;;;;;7.09;100.00;100215.31;5012934;28;19917;-85
2022/10/27 18:56:37;;;;;;;;;;;;;;;7.02;100.00;100216.31;5012855;28;20016;-84
2022/10/27 18:59:05;;;;;;;;;;;;;;;7.03;100.00;100218.94;5010859;28;19922;-85
2022/10/27 19:01:31;;;;;;;;;;;;;;;7.01;100.00;100215.47;5012328;28;19963;-87
2022/10/27 19:03:58;;;;;;;;;;;;;;;7.02;100.00;100216.31;4994714;28;19925;-85
2022/10/27 19:06:23;;;;;;;;;;;;;;;7.08;100.00;100217.09;5011859;28;19920;-84
2022/10/27 19:08:49;;;;;;;;;;;;;;;7.00;100.00;100218.13;4994834;28;19921;-90
2022/10/27 19:11:15;;;;;;;;;;;;;;;7.05;100.00;100222.44;5012797;28;19918;-84
2022/10/27 19:13:41;;;;;;;;;;;;;;;7.01;100.00;100211.97;5000805;28;19917;-86
2022/10/27 19:16:32;;;;;;;;;;;;;;;7.03;100.00;100211.03;4989368;28;19995;-83
2022/10/27 19:18:58;;;;;;;;;;;;;;;7.04;100.00;100201.38;4988148;28;20012;-83
2022/10/27 19:21:26;;;;;;;;;;;;;;;7.04;100.00;100207.50;4973844;28;20000;-83
2022/10/27 19:23:53;;;;;;;;;;;;;;;7.03;100.00;100197.84;4975319;28;19937;-87
2022/10/27 19:26:19;;;;;;;;;;;;;;;7.01;100.00;100194.38;4993242;28;19921;-86
2022/10/27 19:28:45;;;;;;;;;;;;;;;7.00;100.00;100192.66;4989332;28;19941;-84
2022/10/27 19:31:13;;;;;;;;;;;;;;;7.04;100.00;100194.31;4992907;28;19949;-85
2022/10/27 19:33:38;;;;;;;;;;;;;;;7.06;100.00;100200.41;4980360;28;19926;-89
2022/10/27 19:36:05;;;;;;;;;;;;;;;7.03;100.00;100197.84;4966917;28;19922;-84
2022/10/27 19:38:31;;;;;;;;;;;;;;;6.98;100.00;100199.72;4989743;28;19925;-85
2022/10/27 19:40:56;;;;;;;;;;;;;;;7.02;100.00;100201.41;4974071;28;19921;-84
2022/10/27 19:43:22;;;;;;;;;;;;;;;7.04;100.00;100204.88;4965852;28;19922;-84
2022/10/27 19:45:47;;;;;;;;;;;;;;;7.07;100.00;100209.22;4973315;28;19937;-85
2022/10/27 19:48:13;;;;;;;;;;;;;;;7.06;100.00;100218.88;4991862;28;20290;-87
2022/10/27 19:50:38;;;;;;;;;;;;;;;7.03;100.00;100213.66;4990564;28;20292;-85